CES5947 ZSJN-ZUGY
Flight info
| Callsign | CES5947 |
|---|---|
| Flight time | 2h 11m |
| Altitude | 30100 |
| Route | GUL91D GULEK W4 SHX DCT UGSUT W152 NSH W30 DS W180 OS/K0935S0950 W180 MEMAG MEMAG8Y |
| Aircraft | B77W/H-SDE1E2E3FGHIJ2J3J4J5M1RWXY/LB1D1 |
Departure
| Time | 2026-04-19 11:35 |
|---|---|
| Airport | Jinan Yaoqiang International Airport (ZSJN) |
Arrival
| Time | 2026-04-19 13:47 |
|---|---|
| Airport | Guiyang Longdongbao International Airport (ZUGY) |
| Time | Latitude | Longitude | Altitude | Speed | Heading |
|---|---|---|---|---|---|
| 2026-04-19 10:54 | 36.84670 | 117.21145 | 90 ft | 0 kts | 306° |
| 2026-04-19 11:26 | 36.84667 | 117.21149 | 90 ft | 2 kts | 306° |
| 2026-04-19 11:27 | 36.84655 | 117.21170 | 90 ft | 2 kts | 306° |
| 2026-04-19 11:27 | 36.84647 | 117.21184 | 90 ft | 2 kts | 306° |
| 2026-04-19 11:27 | 36.84640 | 117.21195 | 90 ft | 2 kts | 306° |
| 2026-04-19 11:27 | 36.84635 | 117.21205 | 90 ft | 2 kts | 299° |
| 2026-04-19 11:28 | 36.84630 | 117.21235 | 90 ft | 2 kts | 257° |
| 2026-04-19 11:28 | 36.84636 | 117.21252 | 90 ft | 2 kts | 237° |
| 2026-04-19 11:28 | 36.84645 | 117.21266 | 90 ft | 2 kts | 217° |
| 2026-04-19 11:28 | 36.84658 | 117.21275 | 90 ft | 2 kts | 195° |
| 2026-04-19 11:29 | 36.84672 | 117.21278 | 90 ft | 2 kts | 176° |
| 2026-04-19 11:29 | 36.84685 | 117.21276 | 90 ft | 0 kts | 176° |
| 2026-04-19 11:29 | 36.84687 | 117.21276 | 90 ft | 0 kts | 176° |
| 2026-04-19 11:31 | 36.84684 | 117.21276 | 90 ft | 1 kts | 176° |
| 2026-04-19 11:32 | 36.84653 | 117.21275 | 90 ft | 7 kts | 182° |
| 2026-04-19 11:32 | 36.84591 | 117.21284 | 90 ft | 10 kts | 142° |
| 2026-04-19 11:32 | 36.84537 | 117.21362 | 90 ft | 14 kts | 161° |
| 2026-04-19 11:32 | 36.84426 | 117.21373 | 90 ft | 17 kts | 179° |
| 2026-04-19 11:33 | 36.84306 | 117.21375 | 90 ft | 16 kts | 179° |
| 2026-04-19 11:33 | 36.84193 | 117.21378 | 90 ft | 15 kts | 179° |
| 2026-04-19 11:33 | 36.84133 | 117.21405 | 90 ft | 7 kts | 124° |
| 2026-04-19 11:33 | 36.84121 | 117.21470 | 90 ft | 7 kts | 95° |
| 2026-04-19 11:34 | 36.84123 | 117.21530 | 90 ft | 6 kts | 79° |
| 2026-04-19 11:34 | 36.84139 | 117.21574 | 90 ft | 5 kts | 45° |
| 2026-04-19 11:34 | 36.84170 | 117.21594 | 90 ft | 4 kts | 15° |
| 2026-04-19 11:34 | 36.84212 | 117.21599 | 90 ft | 8 kts | 1° |
| 2026-04-19 11:35 | 36.84414 | 117.21598 | 90 ft | 68 kts | 0° |
| 2026-04-19 11:35 | 36.85207 | 117.21596 | 99 ft | 157 kts | 360° |
| 2026-04-19 11:35 | 36.86440 | 117.21587 | 771 ft | 190 kts | 0° |
| 2026-04-19 11:35 | 36.87611 | 117.21595 | 2574 ft | 173 kts | 360° |
| 2026-04-19 11:36 | 36.88811 | 117.21600 | 3680 ft | 189 kts | 0° |
| 2026-04-19 11:36 | 36.90205 | 117.21601 | 4644 ft | 215 kts | 360° |
| 2026-04-19 11:36 | 36.91769 | 117.21600 | 5604 ft | 242 kts | 360° |
| 2026-04-19 11:36 | 36.93538 | 117.21600 | 6563 ft | 269 kts | 360° |
| 2026-04-19 11:37 | 36.95444 | 117.21600 | 7760 ft | 286 kts | 359° |
| 2026-04-19 11:37 | 36.97424 | 117.21600 | 9168 ft | 293 kts | 359° |
| 2026-04-19 11:37 | 36.99461 | 117.21600 | 10482 ft | 304 kts | 359° |
| 2026-04-19 11:37 | 37.00181 | 117.21600 | 10858 ft | 310 kts | 359° |
| 2026-04-19 11:38 | 37.03888 | 117.21155 | 12535 ft | 338 kts | 341° |
| 2026-04-19 11:38 | 37.06156 | 117.20071 | 13543 ft | 352 kts | 328° |
| 2026-04-19 11:38 | 37.08191 | 117.18362 | 14539 ft | 363 kts | 314° |
| 2026-04-19 11:38 | 37.09931 | 117.16016 | 15519 ft | 372 kts | 300° |
| 2026-04-19 11:39 | 37.11149 | 117.13294 | 16498 ft | 376 kts | 287° |
| 2026-04-19 11:39 | 37.11824 | 117.10146 | 17832 ft | 371 kts | 273° |
| 2026-04-19 11:39 | 37.11943 | 117.07003 | 19297 ft | 364 kts | 266° |
| 2026-04-19 11:39 | 37.11933 | 117.03869 | 20657 ft | 363 kts | 270° |
| 2026-04-19 11:40 | 37.12121 | 117.00738 | 21802 ft | 365 kts | 274° |
| 2026-04-19 11:40 | 37.12374 | 116.97598 | 22858 ft | 368 kts | 274° |
| 2026-04-19 11:40 | 37.12634 | 116.94427 | 23923 ft | 369 kts | 275° |
| 2026-04-19 11:40 | 37.12897 | 116.91226 | 24852 ft | 373 kts | 275° |
| 2026-04-19 11:41 | 37.13162 | 116.87980 | 25680 ft | 378 kts | 274° |
| 2026-04-19 11:41 | 37.13311 | 116.84693 | 26393 ft | 384 kts | 269° |
| 2026-04-19 11:41 | 37.13088 | 116.81358 | 27085 ft | 390 kts | 262° |
| 2026-04-19 11:41 | 37.12468 | 116.78033 | 27782 ft | 396 kts | 255° |
| 2026-04-19 11:42 | 37.11480 | 116.74810 | 28481 ft | 401 kts | 251° |
| 2026-04-19 11:42 | 37.10381 | 116.71593 | 29068 ft | 406 kts | 250° |
| 2026-04-19 11:42 | 37.09257 | 116.68310 | 29695 ft | 409 kts | 250° |
| 2026-04-19 11:42 | 37.08133 | 116.65025 | 30074 ft | 418 kts | 251° |
| 2026-04-19 11:43 | 37.06956 | 116.61579 | 30096 ft | 433 kts | 251° |
| 2026-04-19 11:43 | 37.05769 | 116.58099 | 30098 ft | 447 kts | 250° |
| 2026-04-19 11:43 | 37.04528 | 116.54469 | 30093 ft | 457 kts | 250° |
| 2026-04-19 11:44 | 37.02001 | 116.47086 | 30097 ft | 456 kts | 250° |
| 2026-04-19 11:44 | 37.00779 | 116.43533 | 30090 ft | 436 kts | 251° |
| 2026-04-19 11:44 | 36.99607 | 116.40127 | 30090 ft | 418 kts | 251° |
| 2026-04-19 11:44 | 36.98480 | 116.36848 | 30096 ft | 404 kts | 251° |
| 2026-04-19 11:45 | 36.97378 | 116.33640 | 30106 ft | 403 kts | 250° |
| 2026-04-19 11:45 | 36.95132 | 116.27101 | 30131 ft | 409 kts | 250° |
| 2026-04-19 11:46 | 36.92876 | 116.20557 | 30147 ft | 412 kts | 251° |
| 2026-04-19 11:46 | 36.90609 | 116.13998 | 30129 ft | 413 kts | 250° |
| 2026-04-19 11:47 | 36.88329 | 116.07413 | 30152 ft | 413 kts | 249° |
| 2026-04-19 11:47 | 36.86058 | 116.00875 | 30141 ft | 414 kts | 250° |
| 2026-04-19 11:48 | 36.83753 | 115.94247 | 30139 ft | 417 kts | 250° |
| 2026-04-19 11:48 | 36.81455 | 115.87655 | 30132 ft | 415 kts | 250° |
| 2026-04-19 11:49 | 36.79143 | 115.81042 | 30124 ft | 414 kts | 250° |
| 2026-04-19 11:49 | 36.76856 | 115.74513 | 30121 ft | 415 kts | 249° |
| 2026-04-19 11:50 | 36.74540 | 115.67924 | 30124 ft | 415 kts | 250° |
| 2026-04-19 11:50 | 36.73377 | 115.64619 | 30124 ft | 417 kts | 250° |
| 2026-04-19 11:51 | 36.69897 | 115.54752 | 30121 ft | 417 kts | 250° |
| 2026-04-19 11:51 | 36.67560 | 115.48145 | 30118 ft | 417 kts | 249° |
| 2026-04-19 11:52 | 36.65212 | 115.41521 | 30119 ft | 419 kts | 250° |
| 2026-04-19 11:52 | 36.62860 | 115.34899 | 30122 ft | 419 kts | 249° |
| 2026-04-19 11:53 | 36.60510 | 115.28297 | 30141 ft | 419 kts | 249° |
| 2026-04-19 11:53 | 36.58149 | 115.21670 | 30135 ft | 422 kts | 249° |
| 2026-04-19 11:54 | 36.55512 | 115.15178 | 30133 ft | 423 kts | 239° |
| 2026-04-19 11:54 | 36.51619 | 115.09694 | 30147 ft | 433 kts | 229° |
| 2026-04-19 11:55 | 36.47225 | 115.04497 | 30139 ft | 435 kts | 229° |
| 2026-04-19 11:55 | 36.42863 | 114.99353 | 30147 ft | 436 kts | 228° |
| 2026-04-19 11:56 | 36.38489 | 114.94202 | 30146 ft | 434 kts | 229° |
| 2026-04-19 11:56 | 36.34777 | 114.88377 | 30141 ft | 430 kts | 243° |
| 2026-04-19 11:57 | 36.31785 | 114.82053 | 30140 ft | 423 kts | 244° |
| 2026-04-19 11:57 | 36.28790 | 114.75706 | 30139 ft | 426 kts | 243° |
| 2026-04-19 11:58 | 36.25744 | 114.69379 | 30139 ft | 429 kts | 242° |
| 2026-04-19 11:58 | 36.22661 | 114.63088 | 30136 ft | 427 kts | 243° |
| 2026-04-19 11:59 | 36.19579 | 114.56803 | 30137 ft | 427 kts | 243° |
| 2026-04-19 11:59 | 36.16497 | 114.50530 | 30144 ft | 426 kts | 243° |
| 2026-04-19 12:00 | 36.13407 | 114.44245 | 30144 ft | 428 kts | 243° |
| 2026-04-19 12:00 | 36.10317 | 114.37974 | 30139 ft | 426 kts | 243° |
| 2026-04-19 12:01 | 36.07224 | 114.31707 | 30149 ft | 430 kts | 243° |
| 2026-04-19 12:01 | 36.04087 | 114.25362 | 30148 ft | 429 kts | 243° |
| 2026-04-19 12:02 | 36.01008 | 114.19148 | 30147 ft | 427 kts | 243° |
| 2026-04-19 12:02 | 35.97873 | 114.12831 | 30140 ft | 429 kts | 243° |
| 2026-04-19 12:03 | 35.94700 | 114.06441 | 30152 ft | 449 kts | 242° |
| 2026-04-19 12:03 | 35.93026 | 114.03077 | 30152 ft | 461 kts | 243° |
| 2026-04-19 12:03 | 35.91342 | 113.99695 | 30148 ft | 471 kts | 242° |
| 2026-04-19 12:04 | 35.87879 | 113.92763 | 30155 ft | 470 kts | 242° |
| 2026-04-19 12:04 | 35.84610 | 113.86230 | 30152 ft | 471 kts | 242° |
| 2026-04-19 12:05 | 35.81074 | 113.79178 | 30162 ft | 467 kts | 242° |
| 2026-04-19 12:05 | 35.77616 | 113.72293 | 30158 ft | 469 kts | 242° |
| 2026-04-19 12:06 | 35.74181 | 113.65465 | 30166 ft | 469 kts | 242° |
| 2026-04-19 12:06 | 35.70739 | 113.58639 | 30173 ft | 469 kts | 242° |
| 2026-04-19 12:07 | 35.67272 | 113.51775 | 30186 ft | 468 kts | 242° |
| 2026-04-19 12:07 | 35.63841 | 113.44997 | 30189 ft | 469 kts | 242° |
| 2026-04-19 12:08 | 35.60388 | 113.38174 | 30174 ft | 468 kts | 243° |
| 2026-04-19 12:08 | 35.57010 | 113.31303 | 30188 ft | 468 kts | 243° |
| 2026-04-19 12:09 | 35.53643 | 113.24461 | 30190 ft | 468 kts | 242° |
| 2026-04-19 12:09 | 35.50254 | 113.17595 | 30194 ft | 468 kts | 242° |
| 2026-04-19 12:10 | 35.46868 | 113.10751 | 30184 ft | 469 kts | 242° |
| 2026-04-19 12:10 | 35.43480 | 113.03919 | 30184 ft | 467 kts | 242° |
| 2026-04-19 12:11 | 35.40090 | 112.97097 | 30175 ft | 469 kts | 242° |
| 2026-04-19 12:11 | 35.36680 | 112.90250 | 30179 ft | 469 kts | 242° |
| 2026-04-19 12:12 | 35.33267 | 112.83411 | 30181 ft | 467 kts | 242° |
| 2026-04-19 12:12 | 35.29847 | 112.76568 | 30183 ft | 470 kts | 242° |
| 2026-04-19 12:13 | 35.26438 | 112.69765 | 30183 ft | 470 kts | 242° |
| 2026-04-19 12:13 | 35.23022 | 112.62960 | 30185 ft | 469 kts | 242° |
| 2026-04-19 12:14 | 35.19613 | 112.56172 | 30176 ft | 469 kts | 243° |
| 2026-04-19 12:14 | 35.16227 | 112.49333 | 30172 ft | 469 kts | 243° |
| 2026-04-19 12:15 | 35.12863 | 112.42548 | 30165 ft | 468 kts | 243° |
| 2026-04-19 12:15 | 35.09457 | 112.35695 | 30163 ft | 472 kts | 243° |
| 2026-04-19 12:16 | 35.06047 | 112.28851 | 30167 ft | 470 kts | 242° |
| 2026-04-19 12:16 | 35.02649 | 112.22044 | 30167 ft | 469 kts | 242° |
| 2026-04-19 12:17 | 34.99245 | 112.15239 | 30167 ft | 470 kts | 242° |
| 2026-04-19 12:17 | 34.95857 | 112.08478 | 30173 ft | 470 kts | 242° |
| 2026-04-19 12:18 | 34.92424 | 112.01641 | 30170 ft | 470 kts | 242° |
| 2026-04-19 12:18 | 34.89010 | 111.94855 | 30178 ft | 471 kts | 242° |
| 2026-04-19 12:19 | 34.85615 | 111.88087 | 30178 ft | 469 kts | 243° |
| 2026-04-19 12:19 | 34.82214 | 111.81239 | 30192 ft | 473 kts | 243° |
| 2026-04-19 12:20 | 34.78822 | 111.74429 | 30195 ft | 471 kts | 243° |
| 2026-04-19 12:20 | 34.75436 | 111.67643 | 30211 ft | 472 kts | 243° |
| 2026-04-19 12:21 | 34.72025 | 111.60825 | 30211 ft | 474 kts | 243° |
| 2026-04-19 12:21 | 34.68602 | 111.53996 | 30224 ft | 473 kts | 243° |
| 2026-04-19 12:22 | 34.65181 | 111.47182 | 30231 ft | 474 kts | 243° |
| 2026-04-19 12:22 | 34.61765 | 111.40393 | 30228 ft | 474 kts | 242° |
| 2026-04-19 12:23 | 34.58322 | 111.33566 | 30246 ft | 472 kts | 242° |
| 2026-04-19 12:23 | 34.54898 | 111.26787 | 30254 ft | 475 kts | 242° |
| 2026-04-19 12:24 | 34.51434 | 111.19943 | 30260 ft | 475 kts | 242° |
| 2026-04-19 12:24 | 34.47989 | 111.13148 | 30263 ft | 475 kts | 242° |
| 2026-04-19 12:25 | 34.44535 | 111.06351 | 30262 ft | 476 kts | 242° |
| 2026-04-19 12:25 | 34.41074 | 110.99501 | 30267 ft | 477 kts | 242° |
| 2026-04-19 12:26 | 34.37665 | 110.92670 | 30272 ft | 474 kts | 243° |
| 2026-04-19 12:26 | 34.34266 | 110.85873 | 30272 ft | 477 kts | 242° |
| 2026-04-19 12:27 | 34.30826 | 110.79015 | 30270 ft | 476 kts | 242° |
| 2026-04-19 12:27 | 34.27374 | 110.72145 | 30263 ft | 477 kts | 242° |
| 2026-04-19 12:28 | 34.22211 | 110.61899 | 30268 ft | 478 kts | 242° |
| 2026-04-19 12:28 | 34.18756 | 110.55060 | 30272 ft | 475 kts | 242° |
| 2026-04-19 12:29 | 34.15322 | 110.48273 | 30270 ft | 476 kts | 242° |
| 2026-04-19 12:29 | 34.11867 | 110.41426 | 30270 ft | 476 kts | 243° |
| 2026-04-19 12:30 | 34.08444 | 110.34605 | 30273 ft | 478 kts | 242° |
| 2026-04-19 12:30 | 34.04991 | 110.27739 | 30280 ft | 478 kts | 242° |
| 2026-04-19 12:31 | 34.01546 | 110.20901 | 30281 ft | 479 kts | 242° |
| 2026-04-19 12:31 | 33.98093 | 110.14066 | 30281 ft | 479 kts | 242° |
| 2026-04-19 12:32 | 33.94626 | 110.07215 | 30285 ft | 476 kts | 242° |
| 2026-04-19 12:32 | 33.91156 | 110.00369 | 30279 ft | 479 kts | 242° |
| 2026-04-19 12:33 | 33.87912 | 109.93472 | 30286 ft | 476 kts | 249° |
| 2026-04-19 12:33 | 33.85987 | 109.85900 | 30286 ft | 473 kts | 257° |
| 2026-04-19 12:34 | 33.84310 | 109.78235 | 30284 ft | 475 kts | 257° |
| 2026-04-19 12:34 | 33.82632 | 109.70599 | 30294 ft | 473 kts | 257° |
| 2026-04-19 12:35 | 33.80915 | 109.62980 | 30288 ft | 475 kts | 253° |
| 2026-04-19 12:35 | 33.77893 | 109.55916 | 30270 ft | 480 kts | 237° |
| 2026-04-19 12:36 | 33.73102 | 109.50239 | 30282 ft | 491 kts | 219° |
| 2026-04-19 12:36 | 33.67252 | 109.46019 | 30285 ft | 494 kts | 214° |
| 2026-04-19 12:37 | 33.61284 | 109.41878 | 30287 ft | 496 kts | 214° |
| 2026-04-19 12:37 | 33.55330 | 109.37721 | 30279 ft | 494 kts | 214° |
| 2026-04-19 12:38 | 33.49358 | 109.33538 | 30274 ft | 498 kts | 214° |
| 2026-04-19 12:38 | 33.43376 | 109.29346 | 30294 ft | 495 kts | 213° |
| 2026-04-19 12:39 | 33.37412 | 109.25169 | 30286 ft | 497 kts | 213° |
| 2026-04-19 12:39 | 33.31458 | 109.21001 | 30273 ft | 497 kts | 213° |
| 2026-04-19 12:40 | 33.25438 | 109.16794 | 30283 ft | 497 kts | 213° |
| 2026-04-19 12:40 | 33.19422 | 109.12594 | 30266 ft | 499 kts | 213° |
| 2026-04-19 12:41 | 33.13443 | 109.08427 | 30254 ft | 499 kts | 213° |
| 2026-04-19 12:41 | 33.08432 | 109.04939 | 30260 ft | 500 kts | 213° |
| 2026-04-19 12:42 | 33.01367 | 109.00029 | 30246 ft | 500 kts | 213° |
| 2026-04-19 12:42 | 32.95361 | 108.95863 | 30247 ft | 499 kts | 213° |
| 2026-04-19 12:43 | 32.89331 | 108.91686 | 30247 ft | 502 kts | 213° |
| 2026-04-19 12:43 | 32.83320 | 108.87529 | 30244 ft | 500 kts | 213° |
| 2026-04-19 12:44 | 32.77264 | 108.83348 | 30243 ft | 502 kts | 213° |
| 2026-04-19 12:44 | 32.71225 | 108.79184 | 30224 ft | 503 kts | 213° |
| 2026-04-19 12:45 | 32.65177 | 108.75021 | 30216 ft | 503 kts | 213° |
| 2026-04-19 12:45 | 32.59129 | 108.70866 | 30222 ft | 502 kts | 213° |
| 2026-04-19 12:46 | 32.53084 | 108.66718 | 30220 ft | 503 kts | 213° |
| 2026-04-19 12:46 | 32.47179 | 108.62269 | 30218 ft | 499 kts | 223° |
| 2026-04-19 12:47 | 32.42577 | 108.56261 | 30205 ft | 494 kts | 239° |
| 2026-04-19 12:47 | 32.39694 | 108.48962 | 30224 ft | 490 kts | 255° |
| 2026-04-19 12:48 | 32.37965 | 108.41206 | 30224 ft | 488 kts | 257° |
| 2026-04-19 12:48 | 32.36262 | 108.33425 | 30227 ft | 490 kts | 256° |
| 2026-04-19 12:49 | 32.34550 | 108.25680 | 30214 ft | 490 kts | 256° |
| 2026-04-19 12:49 | 32.32971 | 108.19212 | 30202 ft | 491 kts | 254° |
| 2026-04-19 12:50 | 32.30657 | 108.10262 | 30189 ft | 490 kts | 254° |
| 2026-04-19 12:50 | 32.29664 | 108.06417 | 30188 ft | 489 kts | 254° |
| 2026-04-19 12:51 | 32.26680 | 107.94865 | 30184 ft | 490 kts | 254° |
| 2026-04-19 12:51 | 32.24688 | 107.87170 | 30169 ft | 491 kts | 254° |
| 2026-04-19 12:52 | 32.22684 | 107.79442 | 30153 ft | 492 kts | 254° |
| 2026-04-19 12:52 | 32.19807 | 107.72189 | 30161 ft | 497 kts | 238° |
| 2026-04-19 12:53 | 32.15112 | 107.66164 | 30129 ft | 503 kts | 221° |
| 2026-04-19 12:53 | 32.09041 | 107.62044 | 30138 ft | 511 kts | 204° |
| 2026-04-19 12:54 | 32.02203 | 107.59598 | 30116 ft | 513 kts | 199° |
| 2026-04-19 12:54 | 31.95329 | 107.57284 | 30103 ft | 515 kts | 199° |
| 2026-04-19 12:55 | 31.88443 | 107.54940 | 30103 ft | 514 kts | 199° |
| 2026-04-19 12:55 | 31.81566 | 107.52586 | 30089 ft | 515 kts | 199° |
| 2026-04-19 12:56 | 31.74695 | 107.50230 | 30079 ft | 515 kts | 199° |
| 2026-04-19 12:56 | 31.67781 | 107.47856 | 30069 ft | 515 kts | 200° |
| 2026-04-19 12:57 | 31.60883 | 107.45489 | 30066 ft | 516 kts | 200° |
| 2026-04-19 12:57 | 31.54020 | 107.43136 | 30043 ft | 517 kts | 199° |
| 2026-04-19 12:58 | 31.48234 | 107.41155 | 30048 ft | 517 kts | 200° |
| 2026-04-19 12:58 | 31.40239 | 107.38250 | 30021 ft | 515 kts | 206° |
| 2026-04-19 12:59 | 31.33850 | 107.34583 | 30020 ft | 511 kts | 210° |
| 2026-04-19 12:59 | 31.27506 | 107.30784 | 29999 ft | 513 kts | 210° |
| 2026-04-19 13:00 | 31.21138 | 107.26981 | 29998 ft | 512 kts | 210° |
| 2026-04-19 13:00 | 31.14802 | 107.23205 | 29983 ft | 513 kts | 210° |
| 2026-04-19 13:01 | 31.08417 | 107.19407 | 29996 ft | 514 kts | 210° |
| 2026-04-19 13:01 | 31.02089 | 107.15650 | 29971 ft | 513 kts | 210° |
| 2026-04-19 13:02 | 30.95708 | 107.11867 | 29978 ft | 514 kts | 210° |
| 2026-04-19 13:02 | 30.89323 | 107.08087 | 29981 ft | 516 kts | 210° |
| 2026-04-19 13:03 | 30.82897 | 107.04289 | 29971 ft | 515 kts | 210° |
| 2026-04-19 13:03 | 30.76531 | 107.00532 | 29966 ft | 517 kts | 210° |
| 2026-04-19 13:04 | 30.69782 | 106.97560 | 29967 ft | 524 kts | 195° |
| 2026-04-19 13:04 | 30.62474 | 106.96845 | 29976 ft | 532 kts | 182° |
| 2026-04-19 13:05 | 30.55068 | 106.96924 | 29987 ft | 532 kts | 182° |
| 2026-04-19 13:05 | 30.47616 | 106.97015 | 30005 ft | 531 kts | 182° |
| 2026-04-19 13:06 | 30.40205 | 106.97105 | 29999 ft | 532 kts | 182° |
| 2026-04-19 13:06 | 30.32792 | 106.97172 | 29975 ft | 533 kts | 184° |
| 2026-04-19 13:07 | 30.25340 | 106.97074 | 29968 ft | 533 kts | 184° |
| 2026-04-19 13:07 | 30.17930 | 106.96973 | 29964 ft | 533 kts | 184° |
| 2026-04-19 13:08 | 30.10458 | 106.96877 | 29967 ft | 536 kts | 184° |
| 2026-04-19 13:08 | 30.02985 | 106.96783 | 29970 ft | 536 kts | 184° |
| 2026-04-19 13:09 | 29.95495 | 106.96693 | 29974 ft | 535 kts | 184° |
| 2026-04-19 13:09 | 29.88049 | 106.96602 | 29959 ft | 534 kts | 184° |
| 2026-04-19 13:10 | 29.80626 | 106.96513 | 29950 ft | 538 kts | 184° |
| 2026-04-19 13:10 | 29.73150 | 106.96423 | 29933 ft | 533 kts | 184° |
| 2026-04-19 13:11 | 29.65725 | 106.96335 | 29944 ft | 534 kts | 184° |
| 2026-04-19 13:11 | 29.58245 | 106.96246 | 29956 ft | 536 kts | 184° |
| 2026-04-19 13:12 | 29.50790 | 106.96158 | 29960 ft | 532 kts | 184° |
| 2026-04-19 13:12 | 29.43408 | 106.96069 | 29971 ft | 533 kts | 184° |
| 2026-04-19 13:13 | 29.35944 | 106.95978 | 29995 ft | 532 kts | 184° |
| 2026-04-19 13:13 | 29.28585 | 106.95888 | 30010 ft | 532 kts | 184° |
| 2026-04-19 13:14 | 29.21188 | 106.95800 | 30021 ft | 530 kts | 184° |
| 2026-04-19 13:14 | 29.13780 | 106.95710 | 30032 ft | 531 kts | 184° |
| 2026-04-19 13:15 | 29.06381 | 106.95621 | 30034 ft | 530 kts | 184° |
| 2026-04-19 13:15 | 28.99038 | 106.95533 | 30038 ft | 529 kts | 184° |
| 2026-04-19 13:16 | 28.91624 | 106.95444 | 30018 ft | 529 kts | 184° |
| 2026-04-19 13:16 | 28.84308 | 106.95356 | 30009 ft | 526 kts | 184° |
| 2026-04-19 13:17 | 28.80640 | 106.95313 | 29755 ft | 519 kts | 184° |
| 2026-04-19 13:17 | 28.77083 | 106.95272 | 29252 ft | 511 kts | 184° |
| 2026-04-19 13:17 | 28.73556 | 106.95231 | 28871 ft | 500 kts | 184° |
| 2026-04-19 13:17 | 28.70092 | 106.95190 | 28509 ft | 490 kts | 183° |
| 2026-04-19 13:18 | 28.66739 | 106.95151 | 28159 ft | 480 kts | 184° |
| 2026-04-19 13:18 | 28.63422 | 106.95111 | 27807 ft | 470 kts | 183° |
| 2026-04-19 13:18 | 28.60186 | 106.95073 | 27458 ft | 461 kts | 184° |
| 2026-04-19 13:18 | 28.56988 | 106.95035 | 27101 ft | 453 kts | 183° |
| 2026-04-19 13:19 | 28.53865 | 106.94997 | 26750 ft | 445 kts | 183° |
| 2026-04-19 13:19 | 28.50762 | 106.94959 | 26395 ft | 442 kts | 183° |
| 2026-04-19 13:19 | 28.47706 | 106.94922 | 26048 ft | 445 kts | 183° |
| 2026-04-19 13:19 | 28.44596 | 106.94884 | 25691 ft | 444 kts | 182° |
| 2026-04-19 13:20 | 28.41516 | 106.94847 | 25342 ft | 440 kts | 182° |
| 2026-04-19 13:20 | 28.39535 | 106.94824 | 25117 ft | 437 kts | 182° |
| 2026-04-19 13:20 | 28.35469 | 106.94775 | 24647 ft | 435 kts | 182° |
| 2026-04-19 13:20 | 28.32433 | 106.94739 | 24271 ft | 436 kts | 182° |
| 2026-04-19 13:21 | 28.29384 | 106.94702 | 23919 ft | 439 kts | 182° |
| 2026-04-19 13:21 | 28.26324 | 106.94666 | 23607 ft | 438 kts | 182° |
| 2026-04-19 13:21 | 28.23243 | 106.94632 | 23255 ft | 438 kts | 181° |
| 2026-04-19 13:21 | 28.20226 | 106.94762 | 22909 ft | 435 kts | 178° |
| 2026-04-19 13:22 | 28.17181 | 106.94954 | 22565 ft | 435 kts | 178° |
| 2026-04-19 13:22 | 28.14133 | 106.95142 | 22235 ft | 434 kts | 178° |
| 2026-04-19 13:22 | 28.11142 | 106.95323 | 21910 ft | 429 kts | 178° |
| 2026-04-19 13:22 | 28.08193 | 106.95497 | 21587 ft | 424 kts | 178° |
| 2026-04-19 13:23 | 28.05235 | 106.95669 | 21262 ft | 422 kts | 178° |
| 2026-04-19 13:23 | 28.02294 | 106.95830 | 20935 ft | 419 kts | 178° |
| 2026-04-19 13:23 | 27.99396 | 106.95986 | 20611 ft | 417 kts | 178° |
| 2026-04-19 13:23 | 27.96480 | 106.96142 | 20283 ft | 414 kts | 178° |
| 2026-04-19 13:24 | 27.93610 | 106.96295 | 19870 ft | 412 kts | 178° |
| 2026-04-19 13:24 | 27.90758 | 106.96447 | 19403 ft | 408 kts | 178° |
| 2026-04-19 13:24 | 27.87916 | 106.96597 | 18929 ft | 403 kts | 177° |
| 2026-04-19 13:24 | 27.85133 | 106.96744 | 18465 ft | 398 kts | 177° |
| 2026-04-19 13:25 | 27.82383 | 106.96890 | 18000 ft | 393 kts | 177° |
| 2026-04-19 13:25 | 27.79639 | 106.97034 | 17529 ft | 389 kts | 177° |
| 2026-04-19 13:25 | 27.76954 | 106.97176 | 17056 ft | 385 kts | 177° |
| 2026-04-19 13:25 | 27.74276 | 106.97317 | 16582 ft | 381 kts | 177° |
| 2026-04-19 13:26 | 27.71627 | 106.97456 | 16105 ft | 377 kts | 177° |
| 2026-04-19 13:26 | 27.69023 | 106.97593 | 15632 ft | 373 kts | 177° |
| 2026-04-19 13:26 | 27.66460 | 106.97728 | 15163 ft | 370 kts | 177° |
| 2026-04-19 13:26 | 27.63878 | 106.97864 | 14686 ft | 368 kts | 177° |
| 2026-04-19 13:27 | 27.61307 | 106.97999 | 14205 ft | 364 kts | 177° |
| 2026-04-19 13:27 | 27.58791 | 106.98131 | 13731 ft | 360 kts | 177° |
| 2026-04-19 13:27 | 27.56273 | 106.98263 | 13258 ft | 356 kts | 177° |
| 2026-04-19 13:27 | 27.53792 | 106.98392 | 12780 ft | 353 kts | 177° |
| 2026-04-19 13:28 | 27.51375 | 106.98519 | 12310 ft | 349 kts | 177° |
| 2026-04-19 13:28 | 27.48957 | 106.98646 | 11890 ft | 344 kts | 177° |
| 2026-04-19 13:28 | 27.46575 | 106.98762 | 11787 ft | 329 kts | 178° |
| 2026-04-19 13:28 | 27.44334 | 106.98785 | 11783 ft | 313 kts | 179° |
| 2026-04-19 13:29 | 27.42226 | 106.98791 | 11781 ft | 297 kts | 179° |
| 2026-04-19 13:29 | 27.40183 | 106.98803 | 11778 ft | 282 kts | 179° |
| 2026-04-19 13:29 | 27.38278 | 106.98820 | 11783 ft | 267 kts | 179° |
| 2026-04-19 13:29 | 27.36467 | 106.98838 | 11728 ft | 255 kts | 179° |
| 2026-04-19 13:30 | 27.34703 | 106.98856 | 11549 ft | 249 kts | 179° |
| 2026-04-19 13:30 | 27.32991 | 106.98874 | 11357 ft | 246 kts | 179° |
| 2026-04-19 13:30 | 27.29523 | 106.98910 | 11070 ft | 250 kts | 179° |
| 2026-04-19 13:31 | 27.27779 | 106.98929 | 10946 ft | 249 kts | 179° |
| 2026-04-19 13:31 | 27.26017 | 106.98947 | 10771 ft | 250 kts | 179° |
| 2026-04-19 13:31 | 27.24281 | 106.98965 | 10583 ft | 248 kts | 179° |
| 2026-04-19 13:31 | 27.22564 | 106.98983 | 10390 ft | 246 kts | 179° |
| 2026-04-19 13:32 | 27.20861 | 106.98898 | 10189 ft | 245 kts | 189° |
| 2026-04-19 13:32 | 27.19210 | 106.98389 | 9993 ft | 245 kts | 199° |
| 2026-04-19 13:32 | 27.17602 | 106.97713 | 9803 ft | 244 kts | 199° |
| 2026-04-19 13:32 | 27.16012 | 106.97042 | 9615 ft | 243 kts | 199° |
| 2026-04-19 13:33 | 27.14415 | 106.96371 | 9414 ft | 239 kts | 199° |
| 2026-04-19 13:33 | 27.12880 | 106.95728 | 9227 ft | 234 kts | 199° |
| 2026-04-19 13:33 | 27.11355 | 106.95089 | 9035 ft | 229 kts | 199° |
| 2026-04-19 13:33 | 27.09893 | 106.94476 | 8845 ft | 224 kts | 198° |
| 2026-04-19 13:34 | 27.08439 | 106.93868 | 8652 ft | 219 kts | 198° |
| 2026-04-19 13:34 | 27.07017 | 106.93272 | 8469 ft | 212 kts | 199° |
| 2026-04-19 13:34 | 27.05665 | 106.92706 | 8278 ft | 204 kts | 198° |
| 2026-04-19 13:34 | 27.04344 | 106.92153 | 8080 ft | 197 kts | 198° |
| 2026-04-19 13:35 | 27.03068 | 106.91631 | 7885 ft | 191 kts | 197° |
| 2026-04-19 13:35 | 27.01834 | 106.91148 | 7702 ft | 185 kts | 197° |
| 2026-04-19 13:35 | 27.00646 | 106.90680 | 7507 ft | 178 kts | 197° |
| 2026-04-19 13:35 | 26.99495 | 106.90225 | 7314 ft | 171 kts | 196° |
| 2026-04-19 13:36 | 26.98386 | 106.89786 | 7116 ft | 164 kts | 196° |
| 2026-04-19 13:36 | 26.97341 | 106.89374 | 6959 ft | 156 kts | 196° |
| 2026-04-19 13:36 | 26.96285 | 106.88966 | 6948 ft | 161 kts | 194° |
| 2026-04-19 13:36 | 26.95213 | 106.88650 | 6960 ft | 159 kts | 191° |
| 2026-04-19 13:37 | 26.94127 | 106.88387 | 6955 ft | 159 kts | 189° |
| 2026-04-19 13:37 | 26.93055 | 106.88155 | 6950 ft | 158 kts | 188° |
| 2026-04-19 13:37 | 26.91961 | 106.87929 | 6944 ft | 158 kts | 188° |
| 2026-04-19 13:37 | 26.90869 | 106.87714 | 6940 ft | 159 kts | 188° |
| 2026-04-19 13:38 | 26.89770 | 106.87500 | 6950 ft | 159 kts | 188° |
| 2026-04-19 13:38 | 26.88675 | 106.87290 | 6962 ft | 159 kts | 188° |
| 2026-04-19 13:38 | 26.87579 | 106.87080 | 6963 ft | 160 kts | 188° |
| 2026-04-19 13:38 | 26.86471 | 106.86865 | 6959 ft | 160 kts | 188° |
| 2026-04-19 13:39 | 26.85748 | 106.86725 | 6956 ft | 158 kts | 188° |
| 2026-04-19 13:39 | 26.84656 | 106.86512 | 6941 ft | 161 kts | 188° |
| 2026-04-19 13:39 | 26.83542 | 106.86294 | 6955 ft | 161 kts | 188° |
| 2026-04-19 13:39 | 26.82429 | 106.86076 | 6948 ft | 161 kts | 188° |
| 2026-04-19 13:40 | 26.80965 | 106.85790 | 6951 ft | 161 kts | 188° |
| 2026-04-19 13:40 | 26.80596 | 106.85718 | 6948 ft | 161 kts | 188° |
| 2026-04-19 13:40 | 26.79495 | 106.85502 | 6944 ft | 161 kts | 188° |
| 2026-04-19 13:40 | 26.78382 | 106.85284 | 6939 ft | 159 kts | 188° |
| 2026-04-19 13:41 | 26.78016 | 106.85213 | 6941 ft | 159 kts | 188° |
| 2026-04-19 13:41 | 26.77652 | 106.85142 | 6932 ft | 160 kts | 188° |
| 2026-04-19 13:41 | 26.76911 | 106.84997 | 6950 ft | 160 kts | 188° |
| 2026-04-19 13:42 | 26.76175 | 106.84853 | 6940 ft | 160 kts | 188° |
| 2026-04-19 13:43 | 26.67539 | 106.82807 | 6099 ft | 143 kts | 189° |
| 2026-04-19 13:43 | 26.66557 | 106.82595 | 5957 ft | 144 kts | 188° |
| 2026-04-19 13:43 | 26.65564 | 106.82412 | 5747 ft | 145 kts | 187° |
| 2026-04-19 13:44 | 26.64557 | 106.82246 | 5519 ft | 145 kts | 186° |
| 2026-04-19 13:44 | 26.63558 | 106.82059 | 5260 ft | 146 kts | 189° |
| 2026-04-19 13:44 | 26.62546 | 106.81847 | 5018 ft | 147 kts | 189° |
| 2026-04-19 13:44 | 26.61533 | 106.81640 | 4810 ft | 149 kts | 189° |
| 2026-04-19 13:45 | 26.60513 | 106.81434 | 4595 ft | 150 kts | 189° |
| 2026-04-19 13:45 | 26.59485 | 106.81232 | 4459 ft | 150 kts | 189° |
| 2026-04-19 13:45 | 26.58800 | 106.81087 | 4341 ft | 151 kts | 190° |
| 2026-04-19 13:45 | 26.58108 | 106.80947 | 4214 ft | 150 kts | 188° |
| 2026-04-19 13:46 | 26.56361 | 106.80615 | 3961 ft | 151 kts | 189° |
| 2026-04-19 13:46 | 26.55355 | 106.80421 | 3823 ft | 154 kts | 189° |
| 2026-04-19 13:46 | 26.54341 | 106.80218 | 3750 ft | 121 kts | 189° |
| 2026-04-19 13:46 | 26.53736 | 106.80100 | 3750 ft | 54 kts | 189° |
| 2026-04-19 13:47 | 26.53456 | 106.80048 | 3750 ft | 34 kts | 190° |
| 2026-04-19 13:47 | 26.53239 | 106.80002 | 3750 ft | 28 kts | 204° |
| 2026-04-19 13:47 | 26.53101 | 106.79905 | 3750 ft | 17 kts | 216° |
| 2026-04-19 13:47 | 26.53043 | 106.79832 | 3750 ft | 9 kts | 272° |
| 2026-04-19 13:48 | 26.53077 | 106.79786 | 3750 ft | 7 kts | 353° |
| 2026-04-19 13:48 | 26.53130 | 106.79794 | 3750 ft | 7 kts | 9° |
| 2026-04-19 13:48 | 26.53185 | 106.79805 | 3750 ft | 9 kts | 11° |
| 2026-04-19 13:48 | 26.53260 | 106.79820 | 3750 ft | 12 kts | 10° |
| 2026-04-19 13:49 | 26.53354 | 106.79839 | 3750 ft | 15 kts | 10° |
| 2026-04-19 13:49 | 26.53467 | 106.79861 | 3750 ft | 17 kts | 10° |
| 2026-04-19 13:49 | 26.53595 | 106.79885 | 3750 ft | 19 kts | 10° |
| 2026-04-19 13:49 | 26.53737 | 106.79913 | 3750 ft | 21 kts | 10° |
| 2026-04-19 13:50 | 26.53889 | 106.79943 | 3750 ft | 23 kts | 10° |
| 2026-04-19 13:50 | 26.54045 | 106.79972 | 3750 ft | 21 kts | 9° |
| 2026-04-19 13:50 | 26.54186 | 106.79999 | 3750 ft | 19 kts | 10° |
| 2026-04-19 13:50 | 26.54312 | 106.80024 | 3750 ft | 18 kts | 10° |
| 2026-04-19 13:51 | 26.54431 | 106.80048 | 3750 ft | 16 kts | 10° |
| 2026-04-19 13:51 | 26.54540 | 106.80068 | 3750 ft | 15 kts | 9° |
| 2026-04-19 13:51 | 26.54640 | 106.80087 | 3750 ft | 13 kts | 11° |
| 2026-04-19 13:51 | 26.54732 | 106.80106 | 3750 ft | 12 kts | 11° |
| 2026-04-19 13:52 | 26.54789 | 106.80115 | 3751 ft | 12 kts | 9° |
| 2026-04-19 13:52 | 26.54842 | 106.80126 | 3750 ft | 11 kts | 10° |
| 2026-04-19 13:52 | 26.54892 | 106.80136 | 3751 ft | 10 kts | 11° |
| 2026-04-19 13:53 | 26.54917 | 106.80141 | 3751 ft | 10 kts | 11° |
| 2026-04-19 13:53 | 26.55043 | 106.80120 | 3751 ft | 2 kts | 298° |
| 2026-04-19 13:53 | 26.55059 | 106.80096 | 3751 ft | 4 kts | 334° |
| 2026-04-19 13:53 | 26.55094 | 106.80088 | 3751 ft | 5 kts | 326° |
| 2026-04-19 13:54 | 26.55112 | 106.80039 | 3751 ft | 9 kts | 282° |
| 2026-04-19 13:54 | 26.55127 | 106.79967 | 3751 ft | 8 kts | 297° |
| 2026-04-19 13:54 | 26.55181 | 106.79952 | 3751 ft | 7 kts | 11° |
| 2026-04-19 13:54 | 26.55206 | 106.79936 | 3751 ft | 3 kts | 291° |
| 2026-04-19 13:55 | 26.55211 | 106.79906 | 3751 ft | 2 kts | 280° |
| 2026-04-19 13:55 | 26.55212 | 106.79898 | 3751 ft | 0 kts | 280° |
| 2026-04-19 13:55 | 26.55212 | 106.79897 | 3751 ft | 0 kts | 280° |